Bear Garden, Mississippi
Current Conditions -  °F | °C
As of 10:06 AM on Wednesday 26 Nov 2014 (Local Time) from KGLH Reporting Station
Few Clouds Few Clouds  
Wind Chill: 53°   Ceiling: Unl
Heat Index: 53°   Visibility: 10mi
Dew Point: 37°   Wind: 16mph
Humidity: 55%   Direction: 180°S
Pressure: 30.11"   Gusts: NA
Location:  33.1785°N, 90.8086°W
Report Text: KGLH 261606Z AUTO 18014KT 10SM FEW002 12/03 A3011 RMK AO2 T01170028
Loading
Personal Weather Stations






























Interactive Weather Map New forecast layout! Learn more

10-Day Weather Forecast

Advertisements
Track Severe Weather on mobile